38NC weather

CLOSED Annie Penn Hospital Heliport
Reidsville, North Carolina, United States

Public forecast

Using degrees Fahrenheit for public forecast. Weather courtesy of forecast.io.

METAR (pilot weather report)

Closest report is Rockingham County NC Shiloh Airport, 10.2 nm (18.9 km) WNW. Retrieved 2019/07/18 22:35 UTC (42 seconds ago):

KSIF 182235Z AUTO SCT031 27/21 A2996 RMK AO2 T02730210 PWINO

TAF (pilot weather forecast)

Closest forecast is Piedmont Triad International Airport, 20.2 nm (37.4 km) SW. Retrieved 2019/07/18 18:42 UTC (4 hours ago):

TAF KGSO 181739Z 1818/1918 24011KT P6SM BKN045 BKN100 BKN250 TEMPO 1818/1821 VRB12G25KT 4SM TSRA BR BKN035CB FM182300 28005KT P6SM BKN100 BKN250 FM191600 32005KT P6SM SCT040 BKN150